sensor_id;sensor_type;location;lat;lon;timestamp;P1;durP1;ratioP1;P2;durP2;ratioP2
19879;SDS011;10102;50.828;4.416;2023-01-26T00:01:14;79.85;;;24.25;;
19879;SDS011;10102;50.828;4.416;2023-01-26T00:03:55;82.00;;;24.88;;
19879;SDS011;10102;50.828;4.416;2023-01-26T00:06:21;70.95;;;25.08;;
19879;SDS011;10102;50.828;4.416;2023-01-26T00:08:52;76.03;;;25.80;;
19879;SDS011;10102;50.828;4.416;2023-01-26T00:11:21;72.43;;;24.70;;
19879;SDS011;10102;50.828;4.416;2023-01-26T00:13:57;73.10;;;24.58;;
19879;SDS011;10102;50.828;4.416;2023-01-26T00:16:24;81.93;;;25.80;;
19879;SDS011;10102;50.828;4.416;2023-01-26T00:18:51;73.03;;;24.67;;
19879;SDS011;10102;50.828;4.416;2023-01-26T00:21:22;84.90;;;26.52;;
19879;SDS011;10102;50.828;4.416;2023-01-26T00:23:48;79.03;;;25.20;;
19879;SDS011;10102;50.828;4.416;2023-01-26T00:26:18;72.00;;;24.23;;
19879;SDS011;10102;50.828;4.416;2023-01-26T00:28:47;85.60;;;25.65;;
19879;SDS011;10102;50.828;4.416;2023-01-26T00:31:15;81.05;;;25.63;;
19879;SDS011;10102;50.828;4.416;2023-01-26T00:33:46;95.63;;;27.20;;
19879;SDS011;10102;50.828;4.416;2023-01-26T00:36:12;66.13;;;22.17;;
19879;SDS011;10102;50.828;4.416;2023-01-26T00:38:40;70.20;;;21.85;;
19879;SDS011;10102;50.828;4.416;2023-01-26T00:41:06;87.53;;;27.63;;
19879;SDS011;10102;50.828;4.416;2023-01-26T00:43:38;80.78;;;27.13;;
19879;SDS011;10102;50.828;4.416;2023-01-26T00:46:06;68.03;;;20.98;;
19879;SDS011;10102;50.828;4.416;2023-01-26T00:48:32;88.15;;;28.05;;
19879;SDS011;10102;50.828;4.416;2023-01-26T00:50:58;97.97;;;30.30;;
19879;SDS011;10102;50.828;4.416;2023-01-26T00:53:24;96.15;;;30.08;;
19879;SDS011;10102;50.828;4.416;2023-01-26T00:55:52;99.85;;;31.85;;
19879;SDS011;10102;50.828;4.416;2023-01-26T00:58:19;101.53;;;30.05;;
19879;SDS011;10102;50.828;4.416;2023-01-26T01:00:46;92.45;;;26.30;;
19879;SDS011;10102;50.828;4.416;2023-01-26T01:03:14;96.75;;;31.25;;
19879;SDS011;10102;50.828;4.416;2023-01-26T01:05:41;102.28;;;29.60;;
19879;SDS011;10102;50.828;4.416;2023-01-26T01:08:07;98.85;;;30.58;;
19879;SDS011;10102;50.828;4.416;2023-01-26T01:10:32;95.35;;;29.75;;
19879;SDS011;10102;50.828;4.416;2023-01-26T01:13:04;59.42;;;20.67;;
19879;SDS011;10102;50.828;4.416;2023-01-26T01:15:31;93.38;;;29.15;;
19879;SDS011;10102;50.828;4.416;2023-01-26T01:17:56;90.40;;;29.50;;
19879;SDS011;10102;50.828;4.416;2023-01-26T01:20:23;104.57;;;30.58;;
19879;SDS011;10102;50.828;4.416;2023-01-26T01:25:18;101.18;;;31.13;;
19879;SDS011;10102;50.828;4.416;2023-01-26T01:27:43;84.07;;;28.63;;
19879;SDS011;10102;50.828;4.416;2023-01-26T01:30:10;86.03;;;28.63;;
19879;SDS011;10102;50.828;4.416;2023-01-26T01:32:37;88.88;;;28.80;;
19879;SDS011;10102;50.828;4.416;2023-01-26T01:35:06;88.20;;;28.33;;
19879;SDS011;10102;50.828;4.416;2023-01-26T01:37:33;80.88;;;27.52;;
19879;SDS011;10102;50.828;4.416;2023-01-26T01:40:00;88.30;;;27.33;;
19879;SDS011;10102;50.828;4.416;2023-01-26T01:42:26;85.90;;;27.20;;
19879;SDS011;10102;50.828;4.416;2023-01-26T01:47:57;89.75;;;27.83;;
19879;SDS011;10102;50.828;4.416;2023-01-26T01:50:26;91.90;;;27.15;;
19879;SDS011;10102;50.828;4.416;2023-01-26T01:52:56;81.13;;;27.42;;
19879;SDS011;10102;50.828;4.416;2023-01-26T01:55:27;84.68;;;25.55;;
19879;SDS011;10102;50.828;4.416;2023-01-26T01:57:57;80.43;;;27.55;;
19879;SDS011;10102;50.828;4.416;2023-01-26T02:00:25;88.50;;;27.42;;
19879;SDS011;10102;50.828;4.416;2023-01-26T02:03:08;82.18;;;24.95;;
19879;SDS011;10102;50.828;4.416;2023-01-26T02:08:32;77.97;;;26.33;;
19879;SDS011;10102;50.828;4.416;2023-01-26T02:11:04;80.97;;;25.77;;
19879;SDS011;10102;50.828;4.416;2023-01-26T02:13:51;89.82;;;26.48;;
19879;SDS011;10102;50.828;4.416;2023-01-26T02:16:17;81.88;;;26.40;;
19879;SDS011;10102;50.828;4.416;2023-01-26T02:18:43;84.82;;;28.58;;
19879;SDS011;10102;50.828;4.416;2023-01-26T02:21:11;58.05;;;21.75;;
19879;SDS011;10102;50.828;4.416;2023-01-26T02:26:34;81.68;;;27.02;;
19879;SDS011;10102;50.828;4.416;2023-01-26T02:29:02;76.68;;;26.63;;
19879;SDS011;10102;50.828;4.416;2023-01-26T02:31:31;80.28;;;28.08;;
19879;SDS011;10102;50.828;4.416;2023-01-26T02:33:56;74.50;;;26.38;;
19879;SDS011;10102;50.828;4.416;2023-01-26T02:36:27;84.95;;;27.70;;
19879;SDS011;10102;50.828;4.416;2023-01-26T02:41:43;74.18;;;25.05;;
19879;SDS011;10102;50.828;4.416;2023-01-26T02:44:30;74.05;;;27.52;;
19879;SDS011;10102;50.828;4.416;2023-01-26T02:46:59;73.15;;;24.13;;
19879;SDS011;10102;50.828;4.416;2023-01-26T02:49:25;63.65;;;20.25;;
19879;SDS011;10102;50.828;4.416;2023-01-26T02:52:09;63.63;;;22.27;;
19879;SDS011;10102;50.828;4.416;2023-01-26T02:54:35;76.60;;;25.25;;
19879;SDS011;10102;50.828;4.416;2023-01-26T02:57:20;70.38;;;25.30;;
19879;SDS011;10102;50.828;4.416;2023-01-26T02:59:46;79.30;;;25.95;;
19879;SDS011;10102;50.828;4.416;2023-01-26T03:02:13;76.43;;;24.25;;
19879;SDS011;10102;50.828;4.416;2023-01-26T03:04:41;71.70;;;26.80;;
19879;SDS011;10102;50.828;4.416;2023-01-26T03:07:07;72.53;;;26.42;;
19879;SDS011;10102;50.828;4.416;2023-01-26T03:09:33;67.25;;;24.05;;
19879;SDS011;10102;50.828;4.416;2023-01-26T03:11:59;71.22;;;24.70;;
19879;SDS011;10102;50.828;4.416;2023-01-26T03:14:25;71.03;;;24.83;;
19879;SDS011;10102;50.828;4.416;2023-01-26T03:16:51;67.32;;;23.83;;
19879;SDS011;10102;50.828;4.416;2023-01-26T03:19:17;62.88;;;23.60;;
19879;SDS011;10102;50.828;4.416;2023-01-26T03:22:01;68.15;;;23.88;;
19879;SDS011;10102;50.828;4.416;2023-01-26T03:24:47;69.13;;;24.38;;
19879;SDS011;10102;50.828;4.416;2023-01-26T03:27:36;61.97;;;23.20;;
19879;SDS011;10102;50.828;4.416;2023-01-26T03:30:10;69.03;;;24.35;;
19879;SDS011;10102;50.828;4.416;2023-01-26T03:32:38;69.85;;;22.65;;
19879;SDS011;10102;50.828;4.416;2023-01-26T03:35:04;63.25;;;23.70;;
19879;SDS011;10102;50.828;4.416;2023-01-26T03:37:31;60.90;;;24.02;;
19879;SDS011;10102;50.828;4.416;2023-01-26T03:40:03;65.43;;;23.65;;
19879;SDS011;10102;50.828;4.416;2023-01-26T03:42:48;72.53;;;24.33;;
19879;SDS011;10102;50.828;4.416;2023-01-26T03:45:33;74.45;;;25.35;;
19879;SDS011;10102;50.828;4.416;2023-01-26T03:48:17;58.25;;;21.98;;
19879;SDS011;10102;50.828;4.416;2023-01-26T03:51:01;66.03;;;22.83;;
19879;SDS011;10102;50.828;4.416;2023-01-26T03:53:46;56.95;;;22.52;;
19879;SDS011;10102;50.828;4.416;2023-01-26T03:56:31;48.50;;;19.85;;
19879;SDS011;10102;50.828;4.416;2023-01-26T03:58:58;59.22;;;21.40;;
19879;SDS011;10102;50.828;4.416;2023-01-26T04:01:39;57.10;;;21.10;;
19879;SDS011;10102;50.828;4.416;2023-01-26T04:04:25;58.35;;;20.63;;
19879;SDS011;10102;50.828;4.416;2023-01-26T04:07:10;57.00;;;20.40;;
19879;SDS011;10102;50.828;4.416;2023-01-26T04:09:55;55.83;;;21.77;;
19879;SDS011;10102;50.828;4.416;2023-01-26T04:12:22;65.18;;;21.95;;
19879;SDS011;10102;50.828;4.416;2023-01-26T04:14:48;64.18;;;22.15;;
19879;SDS011;10102;50.828;4.416;2023-01-26T04:20:20;51.58;;;19.48;;
19879;SDS011;10102;50.828;4.416;2023-01-26T04:23:05;57.85;;;21.40;;
19879;SDS011;10102;50.828;4.416;2023-01-26T04:25:31;60.38;;;20.88;;
19879;SDS011;10102;50.828;4.416;2023-01-26T04:27:56;57.85;;;22.80;;
19879;SDS011;10102;50.828;4.416;2023-01-26T04:30:22;55.22;;;20.95;;
19879;SDS011;10102;50.828;4.416;2023-01-26T04:32:49;60.65;;;21.13;;
19879;SDS011;10102;50.828;4.416;2023-01-26T04:35:17;59.38;;;21.63;;
19879;SDS011;10102;50.828;4.416;2023-01-26T04:37:42;62.55;;;20.85;;
19879;SDS011;10102;50.828;4.416;2023-01-26T04:40:14;51.40;;;21.08;;
19879;SDS011;10102;50.828;4.416;2023-01-26T04:42:41;58.10;;;20.20;;
19879;SDS011;10102;50.828;4.416;2023-01-26T04:45:08;66.18;;;21.00;;
19879;SDS011;10102;50.828;4.416;2023-01-26T04:47:35;58.80;;;20.70;;
19879;SDS011;10102;50.828;4.416;2023-01-26T04:50:00;55.20;;;19.92;;
19879;SDS011;10102;50.828;4.416;2023-01-26T04:52:27;59.13;;;19.20;;
19879;SDS011;10102;50.828;4.416;2023-01-26T04:54:53;52.92;;;19.10;;
19879;SDS011;10102;50.828;4.416;2023-01-26T04:57:19;56.50;;;20.23;;
19879;SDS011;10102;50.828;4.416;2023-01-26T04:59:45;52.63;;;19.58;;
19879;SDS011;10102;50.828;4.416;2023-01-26T05:02:13;42.15;;;16.65;;
19879;SDS011;10102;50.828;4.416;2023-01-26T05:04:38;42.50;;;17.05;;
19879;SDS011;10102;50.828;4.416;2023-01-26T05:07:04;44.72;;;17.83;;
19879;SDS011;10102;50.828;4.416;2023-01-26T05:09:31;56.60;;;20.02;;
19879;SDS011;10102;50.828;4.416;2023-01-26T05:11:58;48.08;;;18.52;;
19879;SDS011;10102;50.828;4.416;2023-01-26T05:14:43;48.85;;;18.92;;
19879;SDS011;10102;50.828;4.416;2023-01-26T05:17:10;46.35;;;18.55;;
19879;SDS011;10102;50.828;4.416;2023-01-26T05:19:37;47.00;;;18.13;;
19879;SDS011;10102;50.828;4.416;2023-01-26T05:22:04;43.30;;;17.75;;
19879;SDS011;10102;50.828;4.416;2023-01-26T05:24:31;50.50;;;19.50;;
19879;SDS011;10102;50.828;4.416;2023-01-26T05:26:56;50.05;;;18.50;;
19879;SDS011;10102;50.828;4.416;2023-01-26T05:29:42;47.15;;;17.08;;
19879;SDS011;10102;50.828;4.416;2023-01-26T05:32:09;45.15;;;17.27;;
19879;SDS011;10102;50.828;4.416;2023-01-26T05:34:35;44.97;;;16.77;;
19879;SDS011;10102;50.828;4.416;2023-01-26T05:37:01;44.83;;;18.02;;
19879;SDS011;10102;50.828;4.416;2023-01-26T05:39:26;48.58;;;16.65;;
19879;SDS011;10102;50.828;4.416;2023-01-26T05:41:52;43.78;;;16.77;;
19879;SDS011;10102;50.828;4.416;2023-01-26T05:44:22;49.78;;;18.23;;
19879;SDS011;10102;50.828;4.416;2023-01-26T05:46:52;49.13;;;18.88;;
19879;SDS011;10102;50.828;4.416;2023-01-26T05:49:20;45.65;;;17.10;;
19879;SDS011;10102;50.828;4.416;2023-01-26T05:51:45;43.80;;;15.85;;
19879;SDS011;10102;50.828;4.416;2023-01-26T05:54:11;40.55;;;16.60;;
19879;SDS011;10102;50.828;4.416;2023-01-26T05:56:37;42.72;;;15.93;;
19879;SDS011;10102;50.828;4.416;2023-01-26T05:59:03;40.28;;;16.08;;
19879;SDS011;10102;50.828;4.416;2023-01-26T06:01:28;46.17;;;16.20;;
19879;SDS011;10102;50.828;4.416;2023-01-26T06:03:54;41.97;;;16.30;;
19879;SDS011;10102;50.828;4.416;2023-01-26T06:06:22;37.22;;;15.80;;
19879;SDS011;10102;50.828;4.416;2023-01-26T06:08:47;40.83;;;15.35;;
19879;SDS011;10102;50.828;4.416;2023-01-26T06:11:19;46.05;;;15.45;;
19879;SDS011;10102;50.828;4.416;2023-01-26T06:13:46;34.05;;;14.27;;
19879;SDS011;10102;50.828;4.416;2023-01-26T06:16:12;34.55;;;14.38;;
19879;SDS011;10102;50.828;4.416;2023-01-26T06:21:07;36.03;;;14.13;;
19879;SDS011;10102;50.828;4.416;2023-01-26T06:23:34;33.33;;;14.40;;
19879;SDS011;10102;50.828;4.416;2023-01-26T06:26:01;37.38;;;14.75;;
19879;SDS011;10102;50.828;4.416;2023-01-26T06:28:29;34.28;;;13.32;;
19879;SDS011;10102;50.828;4.416;2023-01-26T06:31:00;34.03;;;13.65;;
19879;SDS011;10102;50.828;4.416;2023-01-26T06:33:27;34.72;;;13.45;;
19879;SDS011;10102;50.828;4.416;2023-01-26T06:36:00;34.55;;;14.30;;
19879;SDS011;10102;50.828;4.416;2023-01-26T06:38:29;35.20;;;12.43;;
19879;SDS011;10102;50.828;4.416;2023-01-26T06:41:00;29.75;;;12.82;;
19879;SDS011;10102;50.828;4.416;2023-01-26T06:43:34;31.63;;;11.38;;
19879;SDS011;10102;50.828;4.416;2023-01-26T06:48:30;30.92;;;12.70;;
19879;SDS011;10102;50.828;4.416;2023-01-26T06:53:42;32.40;;;12.73;;
19879;SDS011;10102;50.828;4.416;2023-01-26T06:56:11;31.63;;;12.82;;
19879;SDS011;10102;50.828;4.416;2023-01-26T06:58:38;30.55;;;12.52;;
19879;SDS011;10102;50.828;4.416;2023-01-26T07:01:04;27.65;;;12.82;;
19879;SDS011;10102;50.828;4.416;2023-01-26T07:03:30;27.65;;;12.68;;
19879;SDS011;10102;50.828;4.416;2023-01-26T07:06:01;30.58;;;12.70;;
19879;SDS011;10102;50.828;4.416;2023-01-26T07:08:39;32.33;;;12.13;;
19879;SDS011;10102;50.828;4.416;2023-01-26T07:11:05;29.17;;;12.68;;
19879;SDS011;10102;50.828;4.416;2023-01-26T07:13:32;30.50;;;13.00;;
19879;SDS011;10102;50.828;4.416;2023-01-26T07:16:01;33.08;;;12.02;;
19879;SDS011;10102;50.828;4.416;2023-01-26T07:18:28;31.25;;;12.90;;
19879;SDS011;10102;50.828;4.416;2023-01-26T07:20:58;32.78;;;12.98;;
19879;SDS011;10102;50.828;4.416;2023-01-26T07:23:32;32.47;;;13.55;;
19879;SDS011;10102;50.828;4.416;2023-01-26T07:25:58;31.15;;;13.73;;
19879;SDS011;10102;50.828;4.416;2023-01-26T07:28:25;27.63;;;12.30;;
19879;SDS011;10102;50.828;4.416;2023-01-26T07:30:51;29.98;;;12.60;;
19879;SDS011;10102;50.828;4.416;2023-01-26T07:33:23;33.30;;;13.80;;
19879;SDS011;10102;50.828;4.416;2023-01-26T07:35:51;27.33;;;11.43;;
19879;SDS011;10102;50.828;4.416;2023-01-26T07:38:18;28.05;;;12.50;;
19879;SDS011;10102;50.828;4.416;2023-01-26T07:40:44;29.75;;;12.82;;
19879;SDS011;10102;50.828;4.416;2023-01-26T07:43:11;31.90;;;14.52;;
19879;SDS011;10102;50.828;4.416;2023-01-26T07:45:38;32.28;;;13.45;;
19879;SDS011;10102;50.828;4.416;2023-01-26T07:48:03;31.90;;;12.75;;
19879;SDS011;10102;50.828;4.416;2023-01-26T07:50:29;32.47;;;13.70;;
19879;SDS011;10102;50.828;4.416;2023-01-26T07:52:58;31.35;;;12.40;;
19879;SDS011;10102;50.828;4.416;2023-01-26T07:55:25;31.35;;;12.35;;
19879;SDS011;10102;50.828;4.416;2023-01-26T07:57:50;29.05;;;12.38;;
19879;SDS011;10102;50.828;4.416;2023-01-26T08:00:17;36.13;;;13.27;;
19879;SDS011;10102;50.828;4.416;2023-01-26T08:02:49;32.53;;;12.77;;
19879;SDS011;10102;50.828;4.416;2023-01-26T08:05:15;30.60;;;13.30;;
19879;SDS011;10102;50.828;4.416;2023-01-26T08:07:41;27.20;;;12.15;;
19879;SDS011;10102;50.828;4.416;2023-01-26T08:10:07;26.70;;;12.77;;
19879;SDS011;10102;50.828;4.416;2023-01-26T08:12:35;37.15;;;13.38;;
19879;SDS011;10102;50.828;4.416;2023-01-26T08:15:02;30.70;;;13.10;;
19879;SDS011;10102;50.828;4.416;2023-01-26T08:17:30;28.30;;;12.80;;
19879;SDS011;10102;50.828;4.416;2023-01-26T08:20:00;37.78;;;13.68;;
19879;SDS011;10102;50.828;4.416;2023-01-26T08:22:27;32.38;;;13.35;;
19879;SDS011;10102;50.828;4.416;2023-01-26T08:24:54;32.70;;;13.60;;
19879;SDS011;10102;50.828;4.416;2023-01-26T08:27:19;32.92;;;12.70;;
19879;SDS011;10102;50.828;4.416;2023-01-26T08:29:48;32.53;;;13.13;;
19879;SDS011;10102;50.828;4.416;2023-01-26T08:32:15;28.48;;;12.45;;
19879;SDS011;10102;50.828;4.416;2023-01-26T08:34:42;29.70;;;12.82;;
19879;SDS011;10102;50.828;4.416;2023-01-26T08:37:08;30.50;;;13.25;;
19879;SDS011;10102;50.828;4.416;2023-01-26T08:39:34;30.15;;;13.30;;
19879;SDS011;10102;50.828;4.416;2023-01-26T08:42:03;29.25;;;11.95;;
19879;SDS011;10102;50.828;4.416;2023-01-26T08:44:30;28.60;;;12.88;;
19879;SDS011;10102;50.828;4.416;2023-01-26T08:46:59;26.77;;;12.43;;
19879;SDS011;10102;50.828;4.416;2023-01-26T08:49:25;25.60;;;12.18;;
19879;SDS011;10102;50.828;4.416;2023-01-26T08:51:51;24.33;;;12.07;;
19879;SDS011;10102;50.828;4.416;2023-01-26T08:54:20;22.83;;;11.68;;
19879;SDS011;10102;50.828;4.416;2023-01-26T08:56:48;28.17;;;13.27;;
19879;SDS011;10102;50.828;4.416;2023-01-26T08:59:16;26.55;;;12.00;;
19879;SDS011;10102;50.828;4.416;2023-01-26T09:01:43;24.35;;;11.50;;
19879;SDS011;10102;50.828;4.416;2023-01-26T09:04:10;28.88;;;11.77;;
19879;SDS011;10102;50.828;4.416;2023-01-26T09:06:37;25.65;;;11.90;;
19879;SDS011;10102;50.828;4.416;2023-01-26T09:09:04;23.20;;;10.80;;
19879;SDS011;10102;50.828;4.416;2023-01-26T09:11:35;21.45;;;10.85;;
19879;SDS011;10102;50.828;4.416;2023-01-26T09:14:01;23.65;;;11.32;;
19879;SDS011;10102;50.828;4.416;2023-01-26T09:16:27;25.35;;;11.23;;
19879;SDS011;10102;50.828;4.416;2023-01-26T09:18:55;25.10;;;10.73;;
19879;SDS011;10102;50.828;4.416;2023-01-26T09:21:21;21.15;;;10.52;;
19879;SDS011;10102;50.828;4.416;2023-01-26T09:23:56;23.83;;;10.05;;
19879;SDS011;10102;50.828;4.416;2023-01-26T09:26:24;21.35;;;10.48;;
19879;SDS011;10102;50.828;4.416;2023-01-26T09:28:55;22.00;;;11.20;;
19879;SDS011;10102;50.828;4.416;2023-01-26T09:31:27;24.52;;;11.00;;
19879;SDS011;10102;50.828;4.416;2023-01-26T09:33:53;23.40;;;10.20;;
19879;SDS011;10102;50.828;4.416;2023-01-26T09:36:21;22.02;;;10.80;;
19879;SDS011;10102;50.828;4.416;2023-01-26T09:38:47;22.77;;;10.50;;
19879;SDS011;10102;50.828;4.416;2023-01-26T09:44:03;22.02;;;10.27;;
19879;SDS011;10102;50.828;4.416;2023-01-26T09:46:53;21.75;;;10.43;;
19879;SDS011;10102;50.828;4.416;2023-01-26T09:49:24;22.52;;;10.38;;
19879;SDS011;10102;50.828;4.416;2023-01-26T09:52:29;18.52;;;9.35;;
19879;SDS011;10102;50.828;4.416;2023-01-26T09:54:48;17.92;;;8.85;;
19879;SDS011;10102;50.828;4.416;2023-01-26T09:57:18;19.50;;;9.82;;
19879;SDS011;10102;50.828;4.416;2023-01-26T10:00:07;16.88;;;9.30;;
19879;SDS011;10102;50.828;4.416;2023-01-26T10:05:38;23.40;;;9.10;;
19879;SDS011;10102;50.828;4.416;2023-01-26T10:08:12;16.38;;;9.20;;
19879;SDS011;10102;50.828;4.416;2023-01-26T10:10:44;17.77;;;9.32;;
19879;SDS011;10102;50.828;4.416;2023-01-26T10:13:14;16.35;;;8.57;;
19879;SDS011;10102;50.828;4.416;2023-01-26T10:15:42;21.73;;;10.70;;
19879;SDS011;10102;50.828;4.416;2023-01-26T10:18:17;20.95;;;10.07;;
19879;SDS011;10102;50.828;4.416;2023-01-26T10:20:50;17.88;;;10.20;;
19879;SDS011;10102;50.828;4.416;2023-01-26T10:25:49;21.17;;;10.40;;
19879;SDS011;10102;50.828;4.416;2023-01-26T10:28:17;21.40;;;10.68;;
19879;SDS011;10102;50.828;4.416;2023-01-26T10:30:46;19.67;;;10.73;;
19879;SDS011;10102;50.828;4.416;2023-01-26T10:33:18;22.13;;;11.43;;
19879;SDS011;10102;50.828;4.416;2023-01-26T10:35:45;25.42;;;12.23;;
19879;SDS011;10102;50.828;4.416;2023-01-26T10:41:05;22.63;;;12.05;;
19879;SDS011;10102;50.828;4.416;2023-01-26T10:43:53;27.35;;;11.93;;
19879;SDS011;10102;50.828;4.416;2023-01-26T10:46:38;31.73;;;13.02;;
19879;SDS011;10102;50.828;4.416;2023-01-26T10:51:43;31.02;;;13.07;;
19879;SDS011;10102;50.828;4.416;2023-01-26T10:57:02;33.40;;;14.57;;
19879;SDS011;10102;50.828;4.416;2023-01-26T10:59:43;26.70;;;11.93;;
19879;SDS011;10102;50.828;4.416;2023-01-26T11:02:19;24.88;;;12.48;;
19879;SDS011;10102;50.828;4.416;2023-01-26T11:07:50;29.60;;;12.25;;
19879;SDS011;10102;50.828;4.416;2023-01-26T11:10:24;27.88;;;12.57;;
19879;SDS011;10102;50.828;4.416;2023-01-26T11:15:49;21.60;;;11.43;;
19879;SDS011;10102;50.828;4.416;2023-01-26T11:18:39;28.70;;;12.65;;
19879;SDS011;10102;50.828;4.416;2023-01-26T11:24:25;33.10;;;13.65;;
19879;SDS011;10102;50.828;4.416;2023-01-26T12:00:49;32.80;;;13.48;;
19879;SDS011;10102;50.828;4.416;2023-01-26T12:03:22;34.38;;;13.10;;
19879;SDS011;10102;50.828;4.416;2023-01-26T12:05:53;32.55;;;13.05;;
19879;SDS011;10102;50.828;4.416;2023-01-26T12:08:41;32.13;;;12.98;;
19879;SDS011;10102;50.828;4.416;2023-01-26T12:11:27;29.27;;;13.35;;
19879;SDS011;10102;50.828;4.416;2023-01-26T12:14:14;40.05;;;13.95;;
19879;SDS011;10102;50.828;4.416;2023-01-26T12:22:40;40.60;;;14.10;;
19879;SDS011;10102;50.828;4.416;2023-01-26T12:27:58;46.75;;;15.15;;
19879;SDS011;10102;50.828;4.416;2023-01-26T12:33:22;41.45;;;14.48;;
19879;SDS011;10102;50.828;4.416;2023-01-26T12:39:02;44.38;;;15.90;;
19879;SDS011;10102;50.828;4.416;2023-01-26T12:41:35;37.65;;;14.15;;
19879;SDS011;10102;50.828;4.416;2023-01-26T12:44:45;49.03;;;15.35;;
19879;SDS011;10102;50.828;4.416;2023-01-26T12:47:18;44.22;;;14.35;;
19879;SDS011;10102;50.828;4.416;2023-01-26T12:58:32;46.47;;;14.07;;
19879;SDS011;10102;50.828;4.416;2023-01-26T13:01:02;43.08;;;13.20;;
19879;SDS011;10102;50.828;4.416;2023-01-26T13:03:33;43.42;;;13.25;;
19879;SDS011;10102;50.828;4.416;2023-01-26T13:08:47;39.25;;;13.48;;
19879;SDS011;10102;50.828;4.416;2023-01-26T13:14:32;39.50;;;11.75;;
19879;SDS011;10102;50.828;4.416;2023-01-26T13:27:31;28.83;;;10.25;;
19879;SDS011;10102;50.828;4.416;2023-01-26T13:29:58;40.15;;;10.88;;
19879;SDS011;10102;50.828;4.416;2023-01-26T13:34:58;35.88;;;9.60;;
19879;SDS011;10102;50.828;4.416;2023-01-26T13:40:23;32.25;;;7.85;;
19879;SDS011;10102;50.828;4.416;2023-01-26T13:51:12;26.75;;;5.38;;
19879;SDS011;10102;50.828;4.416;2023-01-26T13:54:04;19.40;;;4.93;;
19879;SDS011;10102;50.828;4.416;2023-01-26T13:56:37;31.42;;;5.75;;
19879;SDS011;10102;50.828;4.416;2023-01-26T13:59:23;22.98;;;5.07;;
19879;SDS011;10102;50.828;4.416;2023-01-26T14:01:51;27.80;;;4.38;;
19879;SDS011;10102;50.828;4.416;2023-01-26T14:04:21;16.30;;;4.93;;
19879;SDS011;10102;50.828;4.416;2023-01-26T14:07:04;22.77;;;4.07;;
19879;SDS011;10102;50.828;4.416;2023-01-26T14:09:54;24.35;;;4.45;;
19879;SDS011;10102;50.828;4.416;2023-01-26T14:12:23;17.70;;;4.22;;
19879;SDS011;10102;50.828;4.416;2023-01-26T14:15:00;21.23;;;4.32;;
19879;SDS011;10102;50.828;4.416;2023-01-26T14:17:30;18.08;;;3.22;;
19879;SDS011;10102;50.828;4.416;2023-01-26T14:19:58;22.73;;;4.13;;
19879;SDS011;10102;50.828;4.416;2023-01-26T14:22:25;22.80;;;3.38;;
19879;SDS011;10102;50.828;4.416;2023-01-26T14:24:53;13.27;;;3.13;;
19879;SDS011;10102;50.828;4.416;2023-01-26T14:27:39;15.40;;;2.80;;
19879;SDS011;10102;50.828;4.416;2023-01-26T14:30:19;16.00;;;2.90;;
19879;SDS011;10102;50.828;4.416;2023-01-26T14:32:47;22.40;;;4.10;;
19879;SDS011;10102;50.828;4.416;2023-01-26T14:35:19;16.50;;;3.17;;
19879;SDS011;10102;50.828;4.416;2023-01-26T14:37:48;25.65;;;3.10;;
19879;SDS011;10102;50.828;4.416;2023-01-26T14:40:30;25.80;;;3.75;;
19879;SDS011;10102;50.828;4.416;2023-01-26T14:42:56;21.67;;;3.33;;
19879;SDS011;10102;50.828;4.416;2023-01-26T14:45:25;23.45;;;3.85;;
19879;SDS011;10102;50.828;4.416;2023-01-26T14:47:55;19.45;;;3.35;;
19879;SDS011;10102;50.828;4.416;2023-01-26T14:50:32;13.38;;;3.65;;
19879;SDS011;10102;50.828;4.416;2023-01-26T14:52:59;15.77;;;3.92;;
19879;SDS011;10102;50.828;4.416;2023-01-26T14:55:29;15.98;;;3.10;;
19879;SDS011;10102;50.828;4.416;2023-01-26T14:58:00;21.95;;;3.85;;
19879;SDS011;10102;50.828;4.416;2023-01-26T15:00:31;19.25;;;3.33;;
19879;SDS011;10102;50.828;4.416;2023-01-26T15:03:03;19.05;;;4.03;;
19879;SDS011;10102;50.828;4.416;2023-01-26T15:05:37;17.67;;;3.30;;
19879;SDS011;10102;50.828;4.416;2023-01-26T15:08:27;19.77;;;3.17;;
19879;SDS011;10102;50.828;4.416;2023-01-26T15:10:53;12.32;;;3.13;;
19879;SDS011;10102;50.828;4.416;2023-01-26T15:13:23;22.48;;;3.45;;
19879;SDS011;10102;50.828;4.416;2023-01-26T15:16:02;16.77;;;3.58;;
19879;SDS011;10102;50.828;4.416;2023-01-26T15:18:38;17.85;;;3.42;;
19879;SDS011;10102;50.828;4.416;2023-01-26T15:23:55;21.98;;;3.58;;
19879;SDS011;10102;50.828;4.416;2023-01-26T15:26:26;27.00;;;3.25;;
19879;SDS011;10102;50.828;4.416;2023-01-26T15:28:57;15.52;;;3.28;;
19879;SDS011;10102;50.828;4.416;2023-01-26T15:31:32;13.30;;;2.75;;
19879;SDS011;10102;50.828;4.416;2023-01-26T15:33:58;17.85;;;3.05;;
19879;SDS011;10102;50.828;4.416;2023-01-26T15:36:38;18.05;;;3.60;;
19879;SDS011;10102;50.828;4.416;2023-01-26T15:39:16;10.43;;;3.47;;
19879;SDS011;10102;50.828;4.416;2023-01-26T15:42:26;25.10;;;3.63;;
19879;SDS011;10102;50.828;4.416;2023-01-26T15:44:37;17.35;;;3.65;;
19879;SDS011;10102;50.828;4.416;2023-01-26T15:47:04;13.52;;;3.33;;
19879;SDS011;10102;50.828;4.416;2023-01-26T15:49:32;14.90;;;2.97;;
19879;SDS011;10102;50.828;4.416;2023-01-26T15:51:58;18.40;;;3.03;;
19879;SDS011;10102;50.828;4.416;2023-01-26T15:56:55;28.17;;;3.63;;
19879;SDS011;10102;50.828;4.416;2023-01-26T15:59:20;18.33;;;3.28;;
19879;SDS011;10102;50.828;4.416;2023-01-26T16:01:46;12.88;;;3.17;;
19879;SDS011;10102;50.828;4.416;2023-01-26T16:04:12;22.85;;;4.07;;
19879;SDS011;10102;50.828;4.416;2023-01-26T16:06:38;13.18;;;3.38;;
19879;SDS011;10102;50.828;4.416;2023-01-26T16:09:05;17.65;;;3.47;;
19879;SDS011;10102;50.828;4.416;2023-01-26T16:11:33;17.17;;;4.03;;
19879;SDS011;10102;50.828;4.416;2023-01-26T16:14:03;18.52;;;4.45;;
19879;SDS011;10102;50.828;4.416;2023-01-26T16:16:29;13.80;;;3.63;;
19879;SDS011;10102;50.828;4.416;2023-01-26T16:18:57;16.42;;;4.38;;
19879;SDS011;10102;50.828;4.416;2023-01-26T16:21:25;21.83;;;3.92;;
19879;SDS011;10102;50.828;4.416;2023-01-26T16:23:56;19.10;;;4.07;;
19879;SDS011;10102;50.828;4.416;2023-01-26T16:26:22;13.95;;;3.30;;
19879;SDS011;10102;50.828;4.416;2023-01-26T16:28:50;13.23;;;3.58;;
19879;SDS011;10102;50.828;4.416;2023-01-26T16:31:19;17.17;;;3.85;;
19879;SDS011;10102;50.828;4.416;2023-01-26T16:33:52;12.93;;;3.60;;
19879;SDS011;10102;50.828;4.416;2023-01-26T16:36:18;7.47;;;2.83;;
19879;SDS011;10102;50.828;4.416;2023-01-26T16:38:48;14.60;;;3.05;;
19879;SDS011;10102;50.828;4.416;2023-01-26T16:43:49;8.82;;;2.28;;
19879;SDS011;10102;50.828;4.416;2023-01-26T16:46:17;20.30;;;3.25;;
19879;SDS011;10102;50.828;4.416;2023-01-26T16:48:46;5.13;;;2.47;;
19879;SDS011;10102;50.828;4.416;2023-01-26T16:51:14;10.27;;;2.75;;
19879;SDS011;10102;50.828;4.416;2023-01-26T16:53:48;12.48;;;2.42;;
19879;SDS011;10102;50.828;4.416;2023-01-26T16:56:15;9.38;;;2.75;;
19879;SDS011;10102;50.828;4.416;2023-01-26T16:58:42;14.93;;;2.88;;
19879;SDS011;10102;50.828;4.416;2023-01-26T17:01:11;14.13;;;2.88;;
19879;SDS011;10102;50.828;4.416;2023-01-26T17:03:48;12.23;;;2.95;;
19879;SDS011;10102;50.828;4.416;2023-01-26T17:06:15;11.20;;;3.05;;
19879;SDS011;10102;50.828;4.416;2023-01-26T17:08:43;12.55;;;2.70;;
19879;SDS011;10102;50.828;4.416;2023-01-26T17:11:19;8.60;;;2.72;;